aviador You're here:

KNOG Decoded Metar

ORANGE GROVE in TX, USA
Report Time2017-12-17 04:56:00
UTC Time2017-12-17 05:59:59
Flight Rules mvfr MVFR
Wind020° at 04 kt
W.Decomp.*RWY 01: 4.0 kt HW 0.3 kt RCW
RWY 31: 1.7 kt HW 3.6 kt RCW
W.Rank020° ranks 9
Current wind is below 020° avg. (8.4)
Visibility9999 m
Phenomena:N/A
Clouds:Overcast 012 Hf
Ceiling1,200 ft
Temp08°C (ISA -6)
Dew Point08°C (100% RH)
AAT6.1°C
QNH1018 hPa
Density Alt-548 ft
Elevation256 ft
Report Wrong Elevation
Raw Report
METAR KNOG 170456Z AUTO 02004KT 10SM OVC012 08/08 A3007 RMK AO2 SLP163
T00830083 PWINO $=

Extra information for KNOG:More info

Metar Taf Metar & Taf Last 4 Metars F.Rules Stats Wind Profile Meteogram Temp Stats Airport Information Weather charts Add Link Nearby VenuesMetar ALERT Operation Metar Decoded Social comments

AIRNAV info for KNOG